Terminal Aerodrome Forecast
Issued by NWS Buffalo, NY

Home | Current Version | Previous Version | Text Only | Print | Product List | Glossary On
Versions: 1 2 3 4 5 6 7 8 9 10 11 12 13 14 15 16 17 18 19 20 21 22 23 24 25 26
000
FTUS41 KBUF 301700
TAFBUF
TAF
KBUF 301740Z 3018/3118 21012G20KT P6SM SCT100
     FM310000 19010KT P6SM BKN100
     FM310400 19009KT P6SM VCSH BKN060
     FM310700 21010KT 4SM SHRA BR OVC040
     FM311000 22012KT 6SM -SHRA OVC025
     FM311500 24016G24KT P6SM BKN040=

USA.gov is the U.S. government's official web portal to all federal, state and local government web resources and services.